sensor_id;sensor_type;location;lat;lon;timestamp;P1;durP1;ratioP1;P2;durP2;ratioP2
31224;SDS011;17847;31.524;74.366;2022-11-20T00:00:12;91.20;;;56.95;;
31224;SDS011;17847;31.524;74.366;2022-11-20T00:02:55;98.65;;;58.40;;
31224;SDS011;17847;31.524;74.366;2022-11-20T00:05:43;98.55;;;57.17;;
31224;SDS011;17847;31.524;74.366;2022-11-20T00:08:27;97.75;;;56.60;;
31224;SDS011;17847;31.524;74.366;2022-11-20T00:11:17;110.63;;;59.22;;
31224;SDS011;17847;31.524;74.366;2022-11-20T00:14:02;96.68;;;58.55;;
31224;SDS011;17847;31.524;74.366;2022-11-20T00:16:50;103.50;;;60.08;;
31224;SDS011;17847;31.524;74.366;2022-11-20T00:19:33;100.50;;;59.60;;
31224;SDS011;17847;31.524;74.366;2022-11-20T00:22:22;100.23;;;60.37;;
31224;SDS011;17847;31.524;74.366;2022-11-20T00:25:12;106.97;;;60.25;;
31224;SDS011;17847;31.524;74.366;2022-11-20T00:27:54;102.05;;;61.17;;
31224;SDS011;17847;31.524;74.366;2022-11-20T00:30:42;104.97;;;64.18;;
31224;SDS011;17847;31.524;74.366;2022-11-20T00:33:27;105.68;;;60.83;;
31224;SDS011;17847;31.524;74.366;2022-11-20T00:36:17;113.70;;;61.53;;
31224;SDS011;17847;31.524;74.366;2022-11-20T00:38:55;109.13;;;61.05;;
31224;SDS011;17847;31.524;74.366;2022-11-20T00:41:52;109.40;;;60.22;;
31224;SDS011;17847;31.524;74.366;2022-11-20T00:44:35;109.50;;;61.35;;
31224;SDS011;17847;31.524;74.366;2022-11-20T00:47:24;115.17;;;63.17;;
31224;SDS011;17847;31.524;74.366;2022-11-20T00:50:07;110.63;;;62.35;;
31224;SDS011;17847;31.524;74.366;2022-11-20T00:53:02;121.95;;;65.75;;
31224;SDS011;17847;31.524;74.366;2022-11-20T00:55:58;115.30;;;64.28;;
31224;SDS011;17847;31.524;74.366;2022-11-20T00:58:49;125.15;;;66.05;;
31224;SDS011;17847;31.524;74.366;2022-11-20T01:01:25;109.28;;;64.45;;
31224;SDS011;17847;31.524;74.366;2022-11-20T01:04:21;124.93;;;66.32;;
31224;SDS011;17847;31.524;74.366;2022-11-20T01:07:02;117.50;;;67.28;;
31224;SDS011;17847;31.524;74.366;2022-11-20T01:09:51;113.05;;;66.82;;
31224;SDS011;17847;31.524;74.366;2022-11-20T01:12:34;112.63;;;63.65;;
31224;SDS011;17847;31.524;74.366;2022-11-20T01:15:22;117.60;;;65.68;;
31224;SDS011;17847;31.524;74.366;2022-11-20T01:18:04;114.28;;;64.43;;
31224;SDS011;17847;31.524;74.366;2022-11-20T01:21:01;116.68;;;66.20;;
31224;SDS011;17847;31.524;74.366;2022-11-20T01:23:42;113.22;;;62.70;;
31224;SDS011;17847;31.524;74.366;2022-11-20T01:26:40;115.97;;;62.70;;
31224;SDS011;17847;31.524;74.366;2022-11-20T01:29:37;113.00;;;62.63;;
31224;SDS011;17847;31.524;74.366;2022-11-20T01:32:20;110.80;;;59.70;;
31224;SDS011;17847;31.524;74.366;2022-11-20T01:35:08;102.32;;;56.83;;
31224;SDS011;17847;31.524;74.366;2022-11-20T01:37:52;111.60;;;57.88;;
31224;SDS011;17847;31.524;74.366;2022-11-20T01:40:40;100.05;;;57.97;;
31224;SDS011;17847;31.524;74.366;2022-11-20T01:43:23;99.28;;;56.88;;
31224;SDS011;17847;31.524;74.366;2022-11-20T01:52:35;102.63;;;56.90;;
31224;SDS011;17847;31.524;74.366;2022-11-20T01:55:17;100.72;;;55.60;;
31224;SDS011;17847;31.524;74.366;2022-11-20T01:58:16;94.93;;;56.67;;
31224;SDS011;17847;31.524;74.366;2022-11-20T02:00:56;102.65;;;56.42;;
31224;SDS011;17847;31.524;74.366;2022-11-20T02:03:52;94.63;;;55.25;;
31224;SDS011;17847;31.524;74.366;2022-11-20T02:06:42;102.03;;;57.42;;
31224;SDS011;17847;31.524;74.366;2022-11-20T02:09:43;100.47;;;56.72;;
31224;SDS011;17847;31.524;74.366;2022-11-20T02:12:30;105.32;;;57.40;;
31224;SDS011;17847;31.524;74.366;2022-11-20T02:15:38;108.03;;;58.63;;
31224;SDS011;17847;31.524;74.366;2022-11-20T02:18:22;106.55;;;58.17;;
31224;SDS011;17847;31.524;74.366;2022-11-20T02:24:12;121.88;;;59.85;;
31224;SDS011;17847;31.524;74.366;2022-11-20T02:27:07;122.10;;;60.72;;
31224;SDS011;17847;31.524;74.366;2022-11-20T02:29:53;114.53;;;59.58;;
31224;SDS011;17847;31.524;74.366;2022-11-20T02:32:43;114.57;;;60.60;;
31224;SDS011;17847;31.524;74.366;2022-11-20T02:38:14;116.65;;;62.13;;
31224;SDS011;17847;31.524;74.366;2022-11-20T02:40:57;112.72;;;59.65;;
31224;SDS011;17847;31.524;74.366;2022-11-20T02:43:45;107.63;;;62.50;;
31224;SDS011;17847;31.524;74.366;2022-11-20T02:46:28;115.85;;;63.42;;
31224;SDS011;17847;31.524;74.366;2022-11-20T02:49:16;115.20;;;60.85;;
31224;SDS011;17847;31.524;74.366;2022-11-20T02:51:58;106.60;;;59.60;;
31224;SDS011;17847;31.524;74.366;2022-11-20T02:54:48;115.82;;;62.90;;
31224;SDS011;17847;31.524;74.366;2022-11-20T02:57:31;105.85;;;58.05;;
31224;SDS011;17847;31.524;74.366;2022-11-20T03:00:19;113.50;;;60.25;;
31224;SDS011;17847;31.524;74.366;2022-11-20T03:03:02;114.25;;;59.47;;
31224;SDS011;17847;31.524;74.366;2022-11-20T03:05:50;91.90;;;55.40;;
31224;SDS011;17847;31.524;74.366;2022-11-20T03:08:33;101.85;;;54.35;;
31224;SDS011;17847;31.524;74.366;2022-11-20T03:11:21;94.22;;;52.17;;
31224;SDS011;17847;31.524;74.366;2022-11-20T03:14:04;84.53;;;48.63;;
31224;SDS011;17847;31.524;74.366;2022-11-20T03:17:00;75.43;;;45.50;;
31224;SDS011;17847;31.524;74.366;2022-11-20T03:19:36;75.68;;;39.88;;
31224;SDS011;17847;31.524;74.366;2022-11-20T03:22:31;72.75;;;37.78;;
31224;SDS011;17847;31.524;74.366;2022-11-20T03:25:20;66.95;;;37.60;;
31224;SDS011;17847;31.524;74.366;2022-11-20T03:28:05;67.03;;;36.67;;
31224;SDS011;17847;31.524;74.366;2022-11-20T03:30:55;65.10;;;34.80;;
31224;SDS011;17847;31.524;74.366;2022-11-20T03:33:37;63.30;;;34.17;;
31224;SDS011;17847;31.524;74.366;2022-11-20T03:36:27;58.92;;;33.17;;
31224;SDS011;17847;31.524;74.366;2022-11-20T03:39:03;55.83;;;32.30;;
31224;SDS011;17847;31.524;74.366;2022-11-20T03:41:59;47.03;;;27.05;;
31224;SDS011;17847;31.524;74.366;2022-11-20T03:44:34;43.70;;;25.00;;
31224;SDS011;17847;31.524;74.366;2022-11-20T03:47:30;53.08;;;26.55;;
31224;SDS011;17847;31.524;74.366;2022-11-20T03:50:06;51.75;;;27.13;;
31224;SDS011;17847;31.524;74.366;2022-11-20T03:53:02;52.83;;;26.85;;
31224;SDS011;17847;31.524;74.366;2022-11-20T03:55:44;46.88;;;26.77;;
31224;SDS011;17847;31.524;74.366;2022-11-20T03:58:33;44.42;;;25.30;;
31224;SDS011;17847;31.524;74.366;2022-11-20T04:01:18;48.80;;;27.15;;
31224;SDS011;17847;31.524;74.366;2022-11-20T04:04:15;41.97;;;26.15;;
31224;SDS011;17847;31.524;74.366;2022-11-20T04:06:57;44.60;;;26.05;;
31224;SDS011;17847;31.524;74.366;2022-11-20T04:09:46;47.83;;;25.80;;
31224;SDS011;17847;31.524;74.366;2022-11-20T04:12:31;46.00;;;25.15;;
31224;SDS011;17847;31.524;74.366;2022-11-20T04:15:27;44.67;;;25.98;;
31224;SDS011;17847;31.524;74.366;2022-11-20T04:18:10;44.45;;;26.33;;
31224;SDS011;17847;31.524;74.366;2022-11-20T04:21:05;46.90;;;27.58;;
31224;SDS011;17847;31.524;74.366;2022-11-20T04:23:49;46.13;;;27.23;;
31224;SDS011;17847;31.524;74.366;2022-11-20T04:26:45;53.45;;;28.88;;
31224;SDS011;17847;31.524;74.366;2022-11-20T04:29:27;46.40;;;27.83;;
31224;SDS011;17847;31.524;74.366;2022-11-20T04:32:15;46.67;;;26.98;;
31224;SDS011;17847;31.524;74.366;2022-11-20T04:34:57;42.85;;;26.60;;
31224;SDS011;17847;31.524;74.366;2022-11-20T04:37:45;48.75;;;25.92;;
31224;SDS011;17847;31.524;74.366;2022-11-20T04:40:20;48.75;;;26.77;;
31224;SDS011;17847;31.524;74.366;2022-11-20T04:43:16;53.70;;;26.48;;
31224;SDS011;17847;31.524;74.366;2022-11-20T04:45:52;42.47;;;25.77;;
31224;SDS011;17847;31.524;74.366;2022-11-20T04:48:48;56.55;;;26.33;;
31224;SDS011;17847;31.524;74.366;2022-11-20T04:51:31;41.17;;;26.30;;
31224;SDS011;17847;31.524;74.366;2022-11-20T04:54:19;45.25;;;27.88;;
31224;SDS011;17847;31.524;74.366;2022-11-20T04:57:01;49.22;;;24.77;;
31224;SDS011;17847;31.524;74.366;2022-11-20T04:59:57;45.08;;;24.30;;
31224;SDS011;17847;31.524;74.366;2022-11-20T05:02:39;44.47;;;24.75;;
31224;SDS011;17847;31.524;74.366;2022-11-20T05:05:28;39.35;;;23.35;;
31224;SDS011;17847;31.524;74.366;2022-11-20T05:08:10;42.38;;;23.33;;
31224;SDS011;17847;31.524;74.366;2022-11-20T05:11:06;42.90;;;23.50;;
31224;SDS011;17847;31.524;74.366;2022-11-20T05:13:54;35.17;;;22.45;;
31224;SDS011;17847;31.524;74.366;2022-11-20T05:16:42;40.40;;;23.67;;
31224;SDS011;17847;31.524;74.366;2022-11-20T05:19:25;40.45;;;24.83;;
31224;SDS011;17847;31.524;74.366;2022-11-20T05:22:29;42.38;;;25.50;;
31224;SDS011;17847;31.524;74.366;2022-11-20T05:25:24;46.28;;;25.70;;
31224;SDS011;17847;31.524;74.366;2022-11-20T05:28:20;56.55;;;29.85;;
31224;SDS011;17847;31.524;74.366;2022-11-20T05:31:05;48.47;;;27.73;;
31224;SDS011;17847;31.524;74.366;2022-11-20T05:34:05;54.45;;;30.52;;
31224;SDS011;17847;31.524;74.366;2022-11-20T05:36:48;52.20;;;29.75;;
31224;SDS011;17847;31.524;74.366;2022-11-20T05:39:37;53.60;;;32.28;;
31224;SDS011;17847;31.524;74.366;2022-11-20T05:42:19;57.38;;;32.08;;
31224;SDS011;17847;31.524;74.366;2022-11-20T05:45:11;52.58;;;31.15;;
31224;SDS011;17847;31.524;74.366;2022-11-20T05:47:57;53.38;;;27.48;;
31224;SDS011;17847;31.524;74.366;2022-11-20T05:50:48;36.90;;;22.65;;
31224;SDS011;17847;31.524;74.366;2022-11-20T05:53:31;30.90;;;17.08;;
31224;SDS011;17847;31.524;74.366;2022-11-20T05:56:27;27.65;;;14.18;;
31224;SDS011;17847;31.524;74.366;2022-11-20T05:59:09;24.80;;;12.55;;
31224;SDS011;17847;31.524;74.366;2022-11-20T06:02:05;25.70;;;12.75;;
31224;SDS011;17847;31.524;74.366;2022-11-20T06:04:40;24.92;;;12.68;;
31224;SDS011;17847;31.524;74.366;2022-11-20T06:07:36;26.00;;;13.43;;
31224;SDS011;17847;31.524;74.366;2022-11-20T06:10:19;22.10;;;12.30;;
31224;SDS011;17847;31.524;74.366;2022-11-20T06:13:07;26.08;;;12.35;;
31224;SDS011;17847;31.524;74.366;2022-11-20T06:15:50;19.88;;;11.18;;
31224;SDS011;17847;31.524;74.366;2022-11-20T06:18:40;17.23;;;10.45;;
31224;SDS011;17847;31.524;74.366;2022-11-20T06:21:23;16.95;;;8.80;;
31224;SDS011;17847;31.524;74.366;2022-11-20T06:24:18;18.98;;;8.13;;
31224;SDS011;17847;31.524;74.366;2022-11-20T06:27:06;20.75;;;8.80;;
31224;SDS011;17847;31.524;74.366;2022-11-20T06:29:48;14.07;;;8.55;;
31224;SDS011;17847;31.524;74.366;2022-11-20T06:32:37;15.25;;;8.05;;
31224;SDS011;17847;31.524;74.366;2022-11-20T06:35:20;17.30;;;8.95;;
31224;SDS011;17847;31.524;74.366;2022-11-20T06:38:08;20.67;;;9.93;;
31224;SDS011;17847;31.524;74.366;2022-11-20T06:40:50;18.83;;;10.10;;
31224;SDS011;17847;31.524;74.366;2022-11-20T06:43:39;19.33;;;10.18;;
31224;SDS011;17847;31.524;74.366;2022-11-20T06:46:21;19.92;;;10.02;;
31224;SDS011;17847;31.524;74.366;2022-11-20T06:49:17;16.05;;;8.75;;
31224;SDS011;17847;31.524;74.366;2022-11-20T06:51:59;14.68;;;8.55;;
31224;SDS011;17847;31.524;74.366;2022-11-20T06:54:55;21.33;;;9.20;;
31224;SDS011;17847;31.524;74.366;2022-11-20T06:57:30;14.27;;;8.63;;
31224;SDS011;17847;31.524;74.366;2022-11-20T07:00:32;11.70;;;7.90;;
31224;SDS011;17847;31.524;74.366;2022-11-20T07:03:14;19.80;;;8.40;;
31224;SDS011;17847;31.524;74.366;2022-11-20T07:06:03;14.55;;;8.55;;
31224;SDS011;17847;31.524;74.366;2022-11-20T07:08:41;15.88;;;8.65;;
31224;SDS011;17847;31.524;74.366;2022-11-20T07:11:36;19.05;;;9.45;;
31224;SDS011;17847;31.524;74.366;2022-11-20T07:14:17;14.20;;;8.75;;
31224;SDS011;17847;31.524;74.366;2022-11-20T07:17:06;15.13;;;8.75;;
31224;SDS011;17847;31.524;74.366;2022-11-20T07:19:47;15.43;;;8.77;;
31224;SDS011;17847;31.524;74.366;2022-11-20T07:22:36;16.17;;;8.18;;
31224;SDS011;17847;31.524;74.366;2022-11-20T07:25:25;16.13;;;8.18;;
31224;SDS011;17847;31.524;74.366;2022-11-20T07:28:22;12.93;;;7.95;;
31224;SDS011;17847;31.524;74.366;2022-11-20T07:30:58;22.92;;;8.75;;
31224;SDS011;17847;31.524;74.366;2022-11-20T07:33:58;19.48;;;8.82;;
31224;SDS011;17847;31.524;74.366;2022-11-20T07:36:34;18.08;;;8.98;;
31224;SDS011;17847;31.524;74.366;2022-11-20T07:39:29;14.73;;;7.90;;
31224;SDS011;17847;31.524;74.366;2022-11-20T07:42:12;14.55;;;7.63;;
31224;SDS011;17847;31.524;74.366;2022-11-20T07:45:02;17.73;;;7.60;;
31224;SDS011;17847;31.524;74.366;2022-11-20T07:47:44;15.63;;;7.93;;
31224;SDS011;17847;31.524;74.366;2022-11-20T07:50:33;28.70;;;10.98;;
31224;SDS011;17847;31.524;74.366;2022-11-20T07:53:15;17.55;;;9.88;;
31224;SDS011;17847;31.524;74.366;2022-11-20T07:56:08;17.45;;;8.52;;
31224;SDS011;17847;31.524;74.366;2022-11-20T07:58:50;21.80;;;8.35;;
31224;SDS011;17847;31.524;74.366;2022-11-20T08:01:39;21.05;;;10.27;;
31224;SDS011;17847;31.524;74.366;2022-11-20T08:04:22;17.25;;;8.90;;
31224;SDS011;17847;31.524;74.366;2022-11-20T08:07:10;21.50;;;9.95;;
31224;SDS011;17847;31.524;74.366;2022-11-20T08:09:53;21.90;;;9.93;;
31224;SDS011;17847;31.524;74.366;2022-11-20T08:12:49;16.73;;;8.57;;
31224;SDS011;17847;31.524;74.366;2022-11-20T08:15:50;19.80;;;10.60;;
31224;SDS011;17847;31.524;74.366;2022-11-20T08:18:39;12.70;;;8.57;;
31224;SDS011;17847;31.524;74.366;2022-11-20T08:21:21;17.48;;;8.63;;
31224;SDS011;17847;31.524;74.366;2022-11-20T08:24:18;19.48;;;9.23;;
31224;SDS011;17847;31.524;74.366;2022-11-20T08:27:07;15.48;;;8.27;;
31224;SDS011;17847;31.524;74.366;2022-11-20T08:30:02;18.10;;;9.10;;
31224;SDS011;17847;31.524;74.366;2022-11-20T08:32:45;20.35;;;9.50;;
31224;SDS011;17847;31.524;74.366;2022-11-20T08:35:35;20.13;;;8.68;;
31224;SDS011;17847;31.524;74.366;2022-11-20T08:38:19;13.02;;;8.50;;
31224;SDS011;17847;31.524;74.366;2022-11-20T08:41:08;18.10;;;8.90;;
31224;SDS011;17847;31.524;74.366;2022-11-20T08:44:07;16.13;;;9.10;;
31224;SDS011;17847;31.524;74.366;2022-11-20T08:46:56;14.05;;;8.00;;
31224;SDS011;17847;31.524;74.366;2022-11-20T08:49:38;20.25;;;9.38;;
31224;SDS011;17847;31.524;74.366;2022-11-20T08:52:34;19.98;;;9.85;;
31224;SDS011;17847;31.524;74.366;2022-11-20T08:55:16;15.88;;;8.52;;
31224;SDS011;17847;31.524;74.366;2022-11-20T08:58:12;17.40;;;7.47;;
31224;SDS011;17847;31.524;74.366;2022-11-20T09:00:54;21.55;;;7.80;;
31224;SDS011;17847;31.524;74.366;2022-11-20T09:03:43;16.85;;;7.50;;
31224;SDS011;17847;31.524;74.366;2022-11-20T09:06:26;16.40;;;7.97;;
31224;SDS011;17847;31.524;74.366;2022-11-20T09:09:14;18.95;;;8.90;;
31224;SDS011;17847;31.524;74.366;2022-11-20T09:11:56;13.07;;;7.40;;
31224;SDS011;17847;31.524;74.366;2022-11-20T09:14:52;21.33;;;7.28;;
31224;SDS011;17847;31.524;74.366;2022-11-20T09:17:34;12.85;;;6.88;;
31224;SDS011;17847;31.524;74.366;2022-11-20T09:20:23;14.50;;;7.32;;
31224;SDS011;17847;31.524;74.366;2022-11-20T09:23:06;16.52;;;7.45;;
31224;SDS011;17847;31.524;74.366;2022-11-20T09:25:55;14.27;;;6.57;;
31224;SDS011;17847;31.524;74.366;2022-11-20T09:28:41;14.68;;;7.57;;
31224;SDS011;17847;31.524;74.366;2022-11-20T09:31:49;14.00;;;8.25;;
31224;SDS011;17847;31.524;74.366;2022-11-20T09:34:31;20.58;;;8.23;;
31224;SDS011;17847;31.524;74.366;2022-11-20T09:37:20;13.73;;;7.95;;
31224;SDS011;17847;31.524;74.366;2022-11-20T09:40:03;15.38;;;8.45;;
31224;SDS011;17847;31.524;74.366;2022-11-20T09:46:25;17.27;;;8.80;;
31224;SDS011;17847;31.524;74.366;2022-11-20T09:49:33;19.42;;;9.02;;
31224;SDS011;17847;31.524;74.366;2022-11-20T09:55:30;17.95;;;9.23;;
31224;SDS011;17847;31.524;74.366;2022-11-20T09:58:19;18.40;;;7.15;;
31224;SDS011;17847;31.524;74.366;2022-11-20T10:01:20;17.75;;;7.53;;
31224;SDS011;17847;31.524;74.366;2022-11-20T10:10:30;19.60;;;8.05;;
31224;SDS011;17847;31.524;74.366;2022-11-20T10:13:26;19.08;;;7.68;;
31224;SDS011;17847;31.524;74.366;2022-11-20T10:25:16;12.32;;;7.43;;
31224;SDS011;17847;31.524;74.366;2022-11-20T10:31:23;19.13;;;6.97;;
31224;SDS011;17847;31.524;74.366;2022-11-20T10:34:12;19.98;;;9.02;;
31224;SDS011;17847;31.524;74.366;2022-11-20T10:37:37;17.50;;;8.95;;
31224;SDS011;17847;31.524;74.366;2022-11-20T10:40:22;15.40;;;8.48;;
31224;SDS011;17847;31.524;74.366;2022-11-20T10:43:32;15.60;;;7.28;;
31224;SDS011;17847;31.524;74.366;2022-11-20T10:46:10;14.45;;;8.30;;
31224;SDS011;17847;31.524;74.366;2022-11-20T10:49:18;12.88;;;7.15;;
31224;SDS011;17847;31.524;74.366;2022-11-20T11:00:39;15.20;;;8.98;;
31224;SDS011;17847;31.524;74.366;2022-11-20T11:03:26;17.77;;;8.38;;
31224;SDS011;17847;31.524;74.366;2022-11-20T11:09:21;16.55;;;8.63;;
31224;SDS011;17847;31.524;74.366;2022-11-20T11:12:17;17.08;;;8.27;;
31224;SDS011;17847;31.524;74.366;2022-11-20T11:15:01;22.20;;;9.18;;
31224;SDS011;17847;31.524;74.366;2022-11-20T11:17:57;14.82;;;8.00;;
31224;SDS011;17847;31.524;74.366;2022-11-20T11:20:38;14.23;;;8.18;;
31224;SDS011;17847;31.524;74.366;2022-11-20T11:23:40;16.48;;;7.53;;
31224;SDS011;17847;31.524;74.366;2022-11-20T11:26:21;14.60;;;7.97;;
31224;SDS011;17847;31.524;74.366;2022-11-20T11:29:18;14.98;;;8.38;;
31224;SDS011;17847;31.524;74.366;2022-11-20T11:32:08;18.60;;;8.50;;
31224;SDS011;17847;31.524;74.366;2022-11-20T11:35:04;15.98;;;8.10;;
31224;SDS011;17847;31.524;74.366;2022-11-20T11:37:47;12.38;;;7.47;;
31224;SDS011;17847;31.524;74.366;2022-11-20T11:40:37;13.57;;;8.23;;
31224;SDS011;17847;31.524;74.366;2022-11-20T11:43:25;20.05;;;7.78;;
31224;SDS011;17847;31.524;74.366;2022-11-20T11:46:36;18.38;;;8.20;;
31224;SDS011;17847;31.524;74.366;2022-11-20T11:49:20;19.58;;;7.70;;
31224;SDS011;17847;31.524;74.366;2022-11-20T11:52:18;20.15;;;8.18;;
31224;SDS011;17847;31.524;74.366;2022-11-20T11:55:07;16.50;;;8.40;;
31224;SDS011;17847;31.524;74.366;2022-11-20T11:59:03;26.67;;;9.30;;
31224;SDS011;17847;31.524;74.366;2022-11-20T12:13:21;20.50;;;9.50;;
31224;SDS011;17847;31.524;74.366;2022-11-20T12:16:15;29.42;;;8.65;;
31224;SDS011;17847;31.524;74.366;2022-11-20T12:19:00;28.02;;;9.13;;
31224;SDS011;17847;31.524;74.366;2022-11-20T12:30:32;26.50;;;11.50;;
31224;SDS011;17847;31.524;74.366;2022-11-20T12:36:45;26.08;;;10.23;;
31224;SDS011;17847;31.524;74.366;2022-11-20T12:39:48;41.35;;;12.18;;
31224;SDS011;17847;31.524;74.366;2022-11-20T12:49:12;34.35;;;12.70;;
31224;SDS011;17847;31.524;74.366;2022-11-20T12:55:09;30.65;;;13.20;;
31224;SDS011;17847;31.524;74.366;2022-11-20T12:58:34;26.17;;;13.00;;
31224;SDS011;17847;31.524;74.366;2022-11-20T13:07:28;28.00;;;13.63;;
31224;SDS011;17847;31.524;74.366;2022-11-20T13:19:27;34.75;;;14.90;;
31224;SDS011;17847;31.524;74.366;2022-11-20T13:22:23;28.02;;;15.52;;
31224;SDS011;17847;31.524;74.366;2022-11-20T13:25:08;32.88;;;14.95;;
31224;SDS011;17847;31.524;74.366;2022-11-20T13:30:53;34.83;;;16.27;;
31224;SDS011;17847;31.524;74.366;2022-11-20T13:33:43;29.27;;;15.00;;
31224;SDS011;17847;31.524;74.366;2022-11-20T13:36:25;29.33;;;15.27;;
31224;SDS011;17847;31.524;74.366;2022-11-20T13:39:27;39.53;;;16.48;;
31224;SDS011;17847;31.524;74.366;2022-11-20T13:45:01;34.70;;;16.65;;
31224;SDS011;17847;31.524;74.366;2022-11-20T13:47:51;37.45;;;17.25;;
31224;SDS011;17847;31.524;74.366;2022-11-20T13:54:01;39.75;;;19.23;;
31224;SDS011;17847;31.524;74.366;2022-11-20T13:56:59;35.50;;;18.17;;
31224;SDS011;17847;31.524;74.366;2022-11-20T14:00:09;46.38;;;19.00;;
31224;SDS011;17847;31.524;74.366;2022-11-20T14:03:06;36.00;;;18.55;;
31224;SDS011;17847;31.524;74.366;2022-11-20T14:05:51;42.38;;;19.25;;
31224;SDS011;17847;31.524;74.366;2022-11-20T14:08:54;39.22;;;19.65;;
31224;SDS011;17847;31.524;74.366;2022-11-20T14:11:45;38.83;;;19.08;;
31224;SDS011;17847;31.524;74.366;2022-11-20T14:14:47;38.95;;;19.98;;
31224;SDS011;17847;31.524;74.366;2022-11-20T14:17:32;44.28;;;19.05;;
31224;SDS011;17847;31.524;74.366;2022-11-20T14:20:32;40.30;;;20.67;;
31224;SDS011;17847;31.524;74.366;2022-11-20T14:23:25;45.53;;;20.02;;
31224;SDS011;17847;31.524;74.366;2022-11-20T14:29:01;42.80;;;21.08;;
31224;SDS011;17847;31.524;74.366;2022-11-20T14:31:51;41.55;;;22.67;;
31224;SDS011;17847;31.524;74.366;2022-11-20T14:34:37;36.45;;;20.15;;
31224;SDS011;17847;31.524;74.366;2022-11-20T14:37:37;37.22;;;20.92;;
31224;SDS011;17847;31.524;74.366;2022-11-20T14:40:26;40.15;;;21.65;;
31224;SDS011;17847;31.524;74.366;2022-11-20T14:43:28;38.47;;;21.35;;
31224;SDS011;17847;31.524;74.366;2022-11-20T14:46:11;45.58;;;23.60;;
31224;SDS011;17847;31.524;74.366;2022-11-20T14:49:02;51.85;;;22.92;;
31224;SDS011;17847;31.524;74.366;2022-11-20T14:51:39;59.70;;;24.25;;
31224;SDS011;17847;31.524;74.366;2022-11-20T14:54:42;45.42;;;22.17;;
31224;SDS011;17847;31.524;74.366;2022-11-20T14:57:29;41.95;;;22.70;;
31224;SDS011;17847;31.524;74.366;2022-11-20T15:00:20;43.03;;;22.80;;
31224;SDS011;17847;31.524;74.366;2022-11-20T15:02:56;44.15;;;22.23;;
31224;SDS011;17847;31.524;74.366;2022-11-20T15:05:52;48.53;;;22.85;;
31224;SDS011;17847;31.524;74.366;2022-11-20T15:08:34;58.10;;;22.20;;
31224;SDS011;17847;31.524;74.366;2022-11-20T15:11:27;41.05;;;21.98;;
31224;SDS011;17847;31.524;74.366;2022-11-20T15:14:11;57.55;;;22.98;;
31224;SDS011;17847;31.524;74.366;2022-11-20T15:17:08;42.83;;;22.27;;
31224;SDS011;17847;31.524;74.366;2022-11-20T15:19:52;50.53;;;23.92;;
31224;SDS011;17847;31.524;74.366;2022-11-20T15:22:43;56.75;;;26.52;;
31224;SDS011;17847;31.524;74.366;2022-11-20T15:25:25;64.97;;;27.90;;
31224;SDS011;17847;31.524;74.366;2022-11-20T15:31:02;59.50;;;26.85;;
31224;SDS011;17847;31.524;74.366;2022-11-20T15:33:58;63.78;;;27.13;;
31224;SDS011;17847;31.524;74.366;2022-11-20T15:36:33;52.08;;;28.15;;
31224;SDS011;17847;31.524;74.366;2022-11-20T15:39:32;51.58;;;28.35;;
31224;SDS011;17847;31.524;74.366;2022-11-20T15:42:14;49.47;;;28.73;;
31224;SDS011;17847;31.524;74.366;2022-11-20T15:45:03;50.30;;;27.58;;
31224;SDS011;17847;31.524;74.366;2022-11-20T15:47:46;57.88;;;29.00;;
31224;SDS011;17847;31.524;74.366;2022-11-20T15:50:39;55.45;;;30.17;;
31224;SDS011;17847;31.524;74.366;2022-11-20T15:53:43;75.03;;;29.88;;
31224;SDS011;17847;31.524;74.366;2022-11-20T15:56:32;58.00;;;30.00;;
31224;SDS011;17847;31.524;74.366;2022-11-20T15:59:15;58.50;;;29.58;;
31224;SDS011;17847;31.524;74.366;2022-11-20T16:02:07;67.07;;;33.03;;
31224;SDS011;17847;31.524;74.366;2022-11-20T16:04:53;56.80;;;30.77;;
31224;SDS011;17847;31.524;74.366;2022-11-20T16:07:42;60.38;;;31.45;;
31224;SDS011;17847;31.524;74.366;2022-11-20T16:10:25;71.25;;;32.83;;
31224;SDS011;17847;31.524;74.366;2022-11-20T16:13:20;76.63;;;34.30;;
31224;SDS011;17847;31.524;74.366;2022-11-20T16:16:21;60.72;;;34.13;;
31224;SDS011;17847;31.524;74.366;2022-11-20T16:19:20;88.07;;;38.65;;
31224;SDS011;17847;31.524;74.366;2022-11-20T16:22:01;70.57;;;36.67;;
31224;SDS011;17847;31.524;74.366;2022-11-20T16:24:51;76.43;;;39.10;;
31224;SDS011;17847;31.524;74.366;2022-11-20T16:27:26;75.68;;;37.40;;
31224;SDS011;17847;31.524;74.366;2022-11-20T16:30:22;85.88;;;39.30;;
31224;SDS011;17847;31.524;74.366;2022-11-20T16:33:08;90.72;;;41.53;;
31224;SDS011;17847;31.524;74.366;2022-11-20T16:36:12;84.32;;;40.45;;
31224;SDS011;17847;31.524;74.366;2022-11-20T16:38:53;77.38;;;38.65;;
31224;SDS011;17847;31.524;74.366;2022-11-20T16:41:49;74.50;;;37.83;;
31224;SDS011;17847;31.524;74.366;2022-11-20T16:44:24;78.55;;;38.30;;
31224;SDS011;17847;31.524;74.366;2022-11-20T16:47:21;70.05;;;38.75;;
31224;SDS011;17847;31.524;74.366;2022-11-20T16:50:03;72.82;;;39.78;;
31224;SDS011;17847;31.524;74.366;2022-11-20T16:52:53;82.57;;;40.65;;
31224;SDS011;17847;31.524;74.366;2022-11-20T16:55:36;74.47;;;39.38;;
31224;SDS011;17847;31.524;74.366;2022-11-20T16:58:32;73.28;;;40.42;;
31224;SDS011;17847;31.524;74.366;2022-11-20T17:01:15;87.18;;;42.28;;
31224;SDS011;17847;31.524;74.366;2022-11-20T17:04:08;83.72;;;43.65;;
31224;SDS011;17847;31.524;74.366;2022-11-20T17:06:43;90.00;;;48.83;;
31224;SDS011;17847;31.524;74.366;2022-11-20T17:09:47;99.10;;;47.28;;
31224;SDS011;17847;31.524;74.366;2022-11-20T17:12:29;89.68;;;48.13;;
31224;SDS011;17847;31.524;74.366;2022-11-20T17:15:25;99.72;;;49.50;;
31224;SDS011;17847;31.524;74.366;2022-11-20T17:18:07;99.03;;;47.58;;
31224;SDS011;17847;31.524;74.366;2022-11-20T17:20:56;92.78;;;46.97;;
31224;SDS011;17847;31.524;74.366;2022-11-20T17:23:41;90.38;;;47.15;;
31224;SDS011;17847;31.524;74.366;2022-11-20T17:26:24;91.00;;;48.42;;
31224;SDS011;17847;31.524;74.366;2022-11-20T17:29:20;97.07;;;47.65;;
31224;SDS011;17847;31.524;74.366;2022-11-20T17:32:21;100.70;;;50.88;;
31224;SDS011;17847;31.524;74.366;2022-11-20T17:34:56;104.78;;;53.60;;
31224;SDS011;17847;31.524;74.366;2022-11-20T17:37:52;108.57;;;54.78;;
31224;SDS011;17847;31.524;74.366;2022-11-20T17:40:28;101.88;;;53.60;;
31224;SDS011;17847;31.524;74.366;2022-11-20T17:43:25;102.57;;;52.95;;
31224;SDS011;17847;31.524;74.366;2022-11-20T17:46:08;107.40;;;56.30;;
31224;SDS011;17847;31.524;74.366;2022-11-20T17:49:15;112.43;;;55.50;;
31224;SDS011;17847;31.524;74.366;2022-11-20T17:51:57;114.43;;;56.95;;
31224;SDS011;17847;31.524;74.366;2022-11-20T17:54:46;106.13;;;59.20;;
31224;SDS011;17847;31.524;74.366;2022-11-20T17:57:29;106.70;;;59.97;;
31224;SDS011;17847;31.524;74.366;2022-11-20T18:00:37;122.20;;;59.95;;
31224;SDS011;17847;31.524;74.366;2022-11-20T18:03:12;118.60;;;59.47;;
31224;SDS011;17847;31.524;74.366;2022-11-20T18:06:09;127.28;;;63.67;;
31224;SDS011;17847;31.524;74.366;2022-11-20T18:08:46;141.52;;;67.43;;